Time;durP1;ratioP1;P1;durP2;ratioP2;P2;SDS_P1;SDS_P2;PMS_P1;PMS_P2;Temp;Humidity;BMP_temperature;BMP_pressure;BME280_temperature;BME280_humidity;BME280_pressure;Samples;Min_cycle;Max_cycle;Signal;HPM_P1;HPM_P2
2022/08/06 00:01:09;;;;;;;3.67;1.83;;;13.00;99.90;;;;;;5029783;28;20191;-46
2022/08/06 00:03:34;;;;;;;1.97;1.60;;;12.90;99.90;;;;;;5027589;28;20187;-46
2022/08/06 00:06:00;;;;;;;5.47;2.20;;;12.90;99.90;;;;;;5028305;28;20207;-46
2022/08/06 00:08:26;;;;;;;10.47;2.13;;;12.90;1.00;;;;;;5028503;28;20292;-46
2022/08/06 00:10:51;;;;;;;5.73;1.80;;;12.90;1.00;;;;;;5027429;28;20188;-46
2022/08/06 00:13:18;;;;;;;2.10;1.57;;;12.80;1.00;;;;;;5019962;28;20187;-46
2022/08/06 00:15:44;;;;;;;3.17;1.70;;;12.80;1.00;;;;;;5028787;28;20183;-45
2022/08/06 00:18:10;;;;;;;3.40;1.70;;;12.80;1.00;;;;;;5025273;28;20854;-46
2022/08/06 00:20:36;;;;;;;4.10;1.83;;;12.80;1.00;;;;;;5023572;28;20269;-46
2022/08/06 00:23:01;;;;;;;3.27;1.73;;;12.70;1.00;;;;;;5021581;28;20183;-46
2022/08/06 00:25:28;;;;;;;2.90;1.60;;;12.70;1.00;;;;;;5022090;28;20179;-46
2022/08/06 00:27:54;;;;;;;3.97;1.70;;;12.70;1.00;;;;;;5025009;28;20214;-46
2022/08/06 00:30:20;;;;;;;2.37;1.60;;;12.70;1.00;;;;;;5016643;28;20425;-46
2022/08/06 00:32:45;;;;;;;4.50;1.73;;;12.60;1.00;;;;;;5023771;28;20418;-46
2022/08/06 00:35:11;;;;;;;3.87;1.90;;;12.60;1.00;;;;;;5009193;28;20195;-46
2022/08/06 00:37:37;;;;;;;2.60;1.50;;;12.60;1.00;;;;;;5024556;28;20586;-46
2022/08/06 00:40:03;;;;;;;3.57;1.70;;;12.60;1.00;;;;;;5024788;28;20195;-46
2022/08/06 00:42:29;;;;;;;3.10;1.70;;;12.60;64.00;;;;;;5030897;28;20187;-51
2022/08/06 00:44:55;;;;;;;5.80;2.03;;;12.60;67.30;;;;;;5030815;28;20393;-52
2022/08/06 00:47:20;;;;;;;4.40;1.93;;;12.60;99.90;;;;;;5030734;28;20472;-50
2022/08/06 00:49:46;;;;;;;5.53;2.00;;;12.60;99.90;;;;;;5030752;28;20171;-51
2022/08/06 00:52:12;;;;;;;3.30;1.63;;;12.60;99.90;;;;;;5029872;28;20187;-51
2022/08/06 00:54:37;;;;;;;3.10;1.90;;;12.60;99.90;;;;;;5030418;28;20237;-51
2022/08/06 00:57:04;;;;;;;3.53;1.70;;;12.70;79.10;;;;;;5030938;28;20622;-51
2022/08/06 00:59:30;;;;;;;7.57;2.77;;;12.70;60.00;;;;;;5030770;28;20261;-51
2022/08/06 01:01:56;;;;;;;2.23;1.87;;;12.70;63.10;;;;;;5029336;28;20924;-51
2022/08/06 01:04:22;;;;;;;4.63;1.80;;;12.60;33.20;;;;;;5031971;28;20283;-50
2022/08/06 01:06:47;;;;;;;1.93;1.63;;;12.60;49.80;;;;;;5034933;28;20219;-51
2022/08/06 01:09:13;;;;;;;6.80;1.93;;;12.60;87.20;;;;;;5033262;28;20191;-51
2022/08/06 01:11:39;;;;;;;3.03;1.87;;;12.60;99.90;;;;;;5033020;28;20182;-50
2022/08/06 01:14:05;;;;;;;3.30;1.80;;;12.60;99.90;;;;;;5035439;28;20641;-50
2022/08/06 01:16:46;;;;;;;5.97;2.27;;;12.50;99.90;;;;;;5033834;28;20195;-51
2022/08/06 01:19:26;;;;;;;4.10;2.03;;;12.50;99.90;;;;;;5033791;28;20465;-50
2022/08/06 01:22:01;;;;;;;4.00;1.70;;;12.50;99.90;;;;;;5033350;28;20445;-51
2022/08/06 01:24:58;;;;;;;4.87;1.80;;;12.40;99.90;;;;;;5034144;28;20445;-50
2022/08/06 01:27:26;;;;;;;1.93;1.77;;;12.40;99.90;;;;;;5034278;28;20800;-51
2022/08/06 01:29:56;;;;;;;6.87;1.87;;;12.40;99.90;;;;;;5032915;28;20931;-51
2022/08/06 01:32:30;;;;;;;4.57;2.10;;;12.40;99.90;;;;;;5032726;28;20450;-51
2022/08/06 01:35:03;;;;;;;5.27;2.10;;;12.40;1.00;;;;;;5033313;28;20443;-51
2022/08/06 01:37:36;;;;;;;7.17;1.77;;;12.40;99.90;;;;;;5034004;28;21115;-50
2022/08/06 01:40:07;;;;;;;3.67;2.00;;;12.40;99.90;;;;;;5033949;28;20413;-51
2022/08/06 01:42:33;;;;;;;2.70;1.80;;;12.30;99.90;;;;;;5028453;28;20434;-51
2022/08/06 01:45:01;;;;;;;8.60;1.70;;;12.30;99.90;;;;;;5020329;28;20460;-51
2022/08/06 01:47:30;;;;;;;4.77;1.60;;;12.30;1.00;;;;;;5033094;28;21117;-51
2022/08/06 01:49:59;;;;;;;8.20;2.30;;;12.30;1.00;;;;;;5033878;28;20476;-51
2022/08/06 01:52:25;;;;;;;6.93;2.30;;;12.30;1.00;;;;;;5032889;28;20789;-50
2022/08/06 01:54:54;;;;;;;3.10;1.80;;;12.30;1.00;;;;;;5032351;28;20449;-51
2022/08/06 01:57:22;;;;;;;3.00;1.80;;;12.30;1.00;;;;;;5031924;28;20444;-51
2022/08/06 01:59:51;;;;;;;2.20;1.93;;;12.30;1.00;;;;;;5032801;28;20818;-51
2022/08/06 02:02:22;;;;;;;1.93;1.83;;;12.30;99.90;;;;;;5037793;28;20440;-51
2022/08/06 02:04:51;;;;;;;4.10;1.97;;;12.30;99.90;;;;;;5034393;28;21165;-51
2022/08/06 02:07:19;;;;;;;3.10;2.07;;;12.30;99.90;;;;;;5027028;28;20611;-52
2022/08/06 02:09:47;;;;;;;2.80;2.23;;;12.30;99.90;;;;;;5024923;28;20813;-51
2022/08/06 02:12:25;;;;;;;2.70;2.07;;;12.30;99.90;;;;;;5026505;28;20910;-52
2022/08/06 02:15:11;;;;;;;6.07;3.03;;;12.20;99.90;;;;;;5009563;28;20442;-51
2022/08/06 02:17:44;;;;;;;6.37;2.50;;;12.20;99.90;;;;;;5011400;28;20473;-51
2022/08/06 02:20:11;;;;;;;6.20;4.73;;;12.20;99.90;;;;;;5029264;28;20529;-51
2022/08/06 02:22:40;;;;;;;4.57;2.03;;;12.20;99.90;;;;;;5028370;28;20799;-51
2022/08/06 02:25:11;;;;;;;2.80;2.03;;;12.20;99.90;;;;;;5024339;28;21248;-51
2022/08/06 02:27:44;;;;;;;6.73;2.00;;;12.20;99.90;;;;;;5023058;28;20518;-51
2022/08/06 02:30:11;;;;;;;4.13;1.90;;;12.20;99.90;;;;;;5033193;28;20914;-51
2022/08/06 02:32:37;;;;;;;3.57;1.90;;;12.20;99.90;;;;;;5041057;28;20428;-51
2022/08/06 02:35:03;;;;;;;4.10;2.20;;;12.20;99.90;;;;;;5047996;28;20434;-51
2022/08/06 02:37:49;;;;;;;6.23;2.13;;;12.20;99.90;;;;;;5030846;28;20834;-51
2022/08/06 02:40:23;;;;;;;2.33;1.93;;;12.10;99.90;;;;;;5030569;28;20477;-52
2022/08/06 02:42:59;;;;;;;3.07;2.03;;;12.10;99.90;;;;;;5033504;28;20531;-52
2022/08/06 02:45:30;;;;;;;2.30;2.03;;;12.10;99.90;;;;;;5031406;28;20934;-52
2022/08/06 02:48:06;;;;;;;5.90;2.33;;;12.10;99.90;;;;;;5030323;28;20534;-52
2022/08/06 02:50:39;;;;;;;4.30;2.13;;;12.10;1.00;;;;;;5022677;28;20930;-52
2022/08/06 02:53:09;;;;;;;3.60;2.10;;;12.10;99.90;;;;;;5022096;28;20719;-47
2022/08/06 02:55:39;;;;;;;3.73;2.13;;;12.00;99.90;;;;;;5020062;28;20813;-47
2022/08/06 02:58:19;;;;;;;2.57;2.37;;;12.00;1.00;;;;;;5016799;28;20528;-47
2022/08/06 03:00:50;;;;;;;3.60;2.03;;;12.00;1.00;;;;;;5031318;28;20793;-47
2022/08/06 03:03:19;;;;;;;4.93;2.40;;;12.00;1.00;;;;;;5030247;28;20437;-48
2022/08/06 03:05:45;;;;;;;3.83;2.03;;;11.90;1.00;;;;;;5031194;28;20445;-47
2022/08/06 03:08:15;;;;;;;7.50;2.40;;;11.90;1.00;;;;;;5031174;28;20448;-47
2022/08/06 03:10:43;;;;;;;2.37;2.10;;;11.80;1.00;;;;;;5031292;28;20498;-51
2022/08/06 03:13:10;;;;;;;4.43;2.50;;;11.80;1.00;;;;;;5032184;28;20417;-47
2022/08/06 03:15:37;;;;;;;4.80;2.20;;;11.80;49.70;;;;;;5032102;28;20891;-47
2022/08/06 03:18:05;;;;;;;3.57;2.23;;;11.80;56.50;;;;;;5030491;28;20433;-47
2022/08/06 03:20:33;;;;;;;9.70;2.40;;;11.80;68.50;;;;;;5030303;28;20433;-47
2022/08/06 03:23:03;;;;;;;3.73;2.13;;;11.70;99.90;;;;;;5032076;28;20414;-44
2022/08/06 03:25:30;;;;;;;3.90;2.83;;;11.70;99.90;;;;;;5019047;28;20447;-44
2022/08/06 03:27:58;;;;;;;4.73;2.63;;;11.70;99.90;;;;;;5025494;28;20493;-45
2022/08/06 03:30:25;;;;;;;5.80;2.37;;;11.70;99.90;;;;;;5030374;28;20516;-44
2022/08/06 03:32:52;;;;;;;5.90;2.40;;;11.60;99.90;;;;;;5037494;28;20461;-44
2022/08/06 03:35:19;;;;;;;2.60;1.90;;;11.60;99.90;;;;;;5029332;28;20465;-44
2022/08/06 03:37:47;;;;;;;4.10;2.60;;;11.60;1.00;;;;;;5024153;28;20438;-44
2022/08/06 03:40:14;;;;;;;2.30;1.97;;;11.60;1.00;;;;;;5024718;28;20452;-44
2022/08/06 03:42:42;;;;;;;2.60;2.40;;;11.60;1.00;;;;;;5025255;28;20945;-45
2022/08/06 03:45:08;;;;;;;4.13;2.30;;;11.60;1.00;;;;;;5022568;28;20497;-46
2022/08/06 03:47:40;;;;;;;2.60;2.40;;;11.60;1.00;;;;;;5027737;28;20462;-47
2022/08/06 03:50:15;;;;;;;6.30;2.63;;;11.60;1.00;;;;;;5031593;28;20429;-47
2022/08/06 03:52:48;;;;;;;4.13;2.27;;;11.50;1.00;;;;;;5015875;28;20480;-47
2022/08/06 03:55:23;;;;;;;4.13;2.20;;;11.50;1.00;;;;;;5017597;28;20433;-47
2022/08/06 03:57:53;;;;;;;4.30;3.07;;;11.50;99.90;;;;;;5016773;28;20480;-47
2022/08/06 04:00:22;;;;;;;3.90;2.37;;;11.50;1.00;;;;;;5019715;28;20559;-47
2022/08/06 04:02:51;;;;;;;6.90;2.93;;;11.50;1.00;;;;;;5014403;28;20445;-47
2022/08/06 04:05:24;;;;;;;5.97;3.03;;;11.60;99.90;;;;;;5023448;28;21017;-44
2022/08/06 04:07:56;;;;;;;5.10;2.90;;;11.70;99.90;;;;;;5030855;28;20473;-44
2022/08/06 04:10:24;;;;;;;5.03;3.17;;;11.60;1.00;;;;;;5016573;28;20856;-44
2022/08/06 04:12:52;;;;;;;4.70;2.63;;;11.60;45.30;;;;;;5015586;28;20456;-44
2022/08/06 04:15:17;;;;;;;5.10;2.97;;;11.60;99.90;;;;;;5015605;28;20431;-44
2022/08/06 04:17:46;;;;;;;7.67;3.37;;;11.60;99.90;;;;;;5015931;28;20469;-45
2022/08/06 04:20:15;;;;;;;4.97;3.30;;;11.60;99.90;;;;;;5015429;28;20888;-45
2022/08/06 04:22:41;;;;;;;8.53;3.63;;;11.60;1.00;;;;;;5014947;28;20535;-44
2022/08/06 04:25:10;;;;;;;3.43;3.13;;;11.60;3.90;;;;;;5014805;28;20563;-44
2022/08/06 04:27:38;;;;;;;4.53;3.60;;;11.60;1.00;;;;;;5011082;28;20217;-52
2022/08/06 04:30:05;;;;;;;5.97;3.23;;;11.60;1.00;;;;;;5020921;28;20441;-44
2022/08/06 04:32:32;;;;;;;5.53;3.50;;;11.60;93.10;;;;;;5021161;28;20429;-45
2022/08/06 04:35:02;;;;;;;4.17;2.60;;;11.60;1.00;;;;;;5027758;28;21210;-44
2022/08/06 04:37:28;;;;;;;7.63;3.43;;;11.60;99.90;;;;;;5022087;28;20473;-44
2022/08/06 04:39:53;;;;;;;3.30;3.10;;;11.70;1.00;;;;;;5026838;28;20544;-44
2022/08/06 04:42:19;;;;;;;6.20;3.80;;;11.70;99.90;;;;;;5027410;28;20552;-44
2022/08/06 04:44:45;;;;;;;4.50;3.67;;;11.80;99.90;;;;;;5034416;28;20243;-44
2022/08/06 04:47:12;;;;;;;4.20;3.80;;;11.90;1.00;;;;;;5016762;28;20973;-45
2022/08/06 04:49:37;;;;;;;10.57;3.40;;;12.10;99.90;;;;;;5031472;28;20191;-50
2022/08/06 04:52:03;;;;;;;6.47;3.80;;;12.20;1.00;;;;;;5026084;28;20434;-50
2022/08/06 04:54:29;;;;;;;5.50;3.50;;;12.20;99.90;;;;;;5018039;28;20226;-51
2022/08/06 04:56:54;;;;;;;5.27;3.60;;;12.30;99.90;;;;;;5031049;28;20187;-50
2022/08/06 04:59:20;;;;;;;4.53;3.30;;;12.40;1.00;;;;;;5030983;28;20194;-50
2022/08/06 05:01:46;;;;;;;6.53;3.17;;;12.50;99.90;;;;;;5029760;28;20187;-50
2022/08/06 05:04:12;;;;;;;7.23;3.50;;;12.60;1.00;;;;;;5027803;28;20187;-50
2022/08/06 05:06:49;;;;;;;4.80;3.00;;;12.70;99.90;;;;;;5027740;28;20473;-52
2022/08/06 05:09:24;;;;;;;4.27;3.10;;;12.80;99.90;;;;;;5028486;28;20691;-50
2022/08/06 05:12:06;;;;;;;5.30;3.03;;;12.90;14.50;;;;;;5029869;28;20441;-45
2022/08/06 05:14:45;;;;;;;5.60;2.77;;;13.10;1.00;;;;;;5028805;28;20444;-45
2022/08/06 05:17:15;;;;;;;2.97;2.67;;;13.10;99.90;;;;;;5018425;28;20453;-45
2022/08/06 05:19:50;;;;;;;8.33;2.90;;;13.10;99.90;;;;;;5022000;28;20454;-45
2022/08/06 05:22:17;;;;;;;5.90;3.00;;;13.10;99.90;;;;;;5019585;28;20443;-46
2022/08/06 05:24:43;;;;;;;3.37;3.00;;;13.20;49.50;;;;;;4998434;28;20490;-46
2022/08/06 05:27:12;;;;;;;5.40;2.40;;;13.30;1.00;;;;;;5021679;28;20505;-51
2022/08/06 05:29:39;;;;;;;10.80;3.03;;;13.40;1.00;;;;;;5028585;28;20201;-51
2022/08/06 05:32:05;;;;;;;4.10;2.30;;;13.50;1.00;;;;;;5030497;28;21166;-51
2022/08/06 05:34:31;;;;;;;5.33;2.70;;;13.70;1.00;;;;;;5028012;28;20488;-50
2022/08/06 05:36:57;;;;;;;3.00;2.73;;;14.00;99.90;;;;;;5028889;28;20433;-51
2022/08/06 05:39:22;;;;;;;6.60;2.60;;;14.30;99.90;;;;;;5027811;28;20195;-52
2022/08/06 05:41:49;;;;;;;3.47;2.40;;;14.50;39.40;;;;;;5032684;28;20249;-52
2022/08/06 05:44:14;;;;;;;4.30;2.53;;;14.60;1.00;;;;;;5029613;28;20652;-51
2022/08/06 05:46:51;;;;;;;4.37;2.30;;;14.70;1.00;;;;;;5028819;28;20469;-51
2022/08/06 05:49:26;;;;;;;5.93;2.70;;;14.60;1.00;;;;;;5027260;28;20217;-51
2022/08/06 05:51:57;;;;;;;3.33;2.30;;;14.50;1.00;;;;;;5037368;28;20501;-52
2022/08/06 05:54:30;;;;;;;5.40;2.00;;;14.50;1.00;;;;;;5032005;28;20495;-51
2022/08/06 05:57:17;;;;;;;2.93;1.93;;;14.60;1.00;;;;;;5033484;28;20432;-52
2022/08/06 05:59:52;;;;;;;5.10;2.47;;;14.70;1.00;;;;;;5031608;28;20498;-51
2022/08/06 06:02:18;;;;;;;2.50;2.30;;;14.70;1.00;;;;;;5034841;28;20503;-52
2022/08/06 06:04:46;;;;;;;4.20;2.50;;;14.60;1.00;;;;;;5031413;28;20915;-52
2022/08/06 06:07:12;;;;;;;2.77;2.10;;;14.60;1.00;;;;;;5030346;28;20218;-51
2022/08/06 06:09:42;;;;;;;4.63;2.23;;;14.50;1.00;;;;;;5031980;28;20533;-52
2022/08/06 06:12:09;;;;;;;2.57;2.03;;;14.50;1.00;;;;;;5039376;28;20452;-51
2022/08/06 06:14:43;;;;;;;3.93;1.97;;;14.60;1.00;;;;;;5032362;28;21089;-52
2022/08/06 06:17:47;;;;;;;5.13;2.00;;;14.80;1.00;;;;;;5018161;28;20481;-52
2022/08/06 06:20:34;;;;;;;4.50;2.00;;;15.20;1.00;;;;;;5036209;28;20447;-51
2022/08/06 06:23:22;;;;;;;2.10;1.90;;;15.80;1.00;;;;;;5029622;28;20506;-51
2022/08/06 06:26:02;;;;;;;3.83;1.97;;;16.30;1.00;;;;;;5002875;28;20453;-50
2022/08/06 06:28:57;;;;;;;4.20;2.10;;;16.60;99.90;;;;;;5031991;28;20549;-51
2022/08/06 06:31:44;;;;;;;4.03;1.90;;;17.00;99.90;;;;;;5029864;28;20446;-50
2022/08/06 06:34:21;;;;;;;6.10;2.33;;;17.30;99.90;;;;;;5036624;28;20452;-51
2022/08/06 06:36:58;;;;;;;6.30;1.67;;;17.60;99.90;;;;;;5033287;28;20437;-51
2022/08/06 06:39:46;;;;;;;2.97;1.90;;;17.60;99.90;;;;;;5025645;28;21177;-46
2022/08/06 06:42:25;;;;;;;3.27;2.13;;;17.60;99.90;;;;;;5030469;28;21241;-45
2022/08/06 06:45:23;;;;;;;6.73;2.17;;;17.70;99.90;;;;;;5018904;28;20456;-45
2022/08/06 06:48:14;;;;;;;2.63;1.73;;;17.80;99.90;;;;;;4937585;28;20545;-45
2022/08/06 06:50:48;;;;;;;1.60;1.50;;;17.90;99.90;;;;;;5023844;28;20457;-46
2022/08/06 06:53:17;;;;;;;3.97;2.07;;;18.10;99.90;;;;;;5022064;28;21235;-45
2022/08/06 06:55:51;;;;;;;6.07;1.70;;;18.20;99.90;;;;;;5022258;28;20561;-45
2022/08/06 06:58:25;;;;;;;4.43;1.73;;;18.40;99.90;;;;;;5020827;28;20619;-46
2022/08/06 07:00:53;;;;;;;3.07;1.30;;;18.80;99.90;;;;;;5019987;28;20460;-45
2022/08/06 07:03:21;;;;;;;5.53;1.50;;;19.10;99.90;;;;;;5031276;28;20449;-45
2022/08/06 07:05:49;;;;;;;6.43;1.50;;;19.40;99.90;;;;;;5031149;28;20498;-45
2022/08/06 07:08:20;;;;;;;3.67;1.20;;;19.90;99.90;;;;;;5030029;28;20434;-45
2022/08/06 07:10:46;;;;;;;4.10;1.73;;;20.30;99.90;;;;;;5014675;28;21172;-46
2022/08/06 07:13:14;;;;;;;2.50;1.03;;;20.60;99.90;;;;;;5030313;28;20829;-46
2022/08/06 07:15:41;;;;;;;3.17;1.37;;;20.50;99.90;;;;;;5014283;28;20897;-45
2022/08/06 07:18:07;;;;;;;5.80;1.63;;;20.50;99.90;;;;;;5031814;28;20927;-45
2022/08/06 07:20:34;;;;;;;1.63;1.10;;;20.50;99.90;;;;;;5030513;28;20440;-46
2022/08/06 07:23:08;;;;;;;5.80;1.60;;;20.80;99.90;;;;;;5031286;28;20191;-45
2022/08/06 07:25:40;;;;;;;2.40;1.30;;;20.80;99.90;;;;;;5028088;28;20443;-45
2022/08/06 07:28:09;;;;;;;2.80;0.90;;;20.70;99.90;;;;;;5031000;28;20480;-45
2022/08/06 07:30:36;;;;;;;2.93;1.17;;;20.40;99.90;;;;;;5034617;28;20437;-45
2022/08/06 07:33:03;;;;;;;1.10;1.00;;;19.60;99.90;;;;;;5032697;28;21058;-45
2022/08/06 07:35:29;;;;;;;2.00;1.10;;;19.20;99.90;;;;;;5035403;28;20507;-45
2022/08/06 07:38:01;;;;;;;2.40;1.10;;;18.60;99.90;;;;;;5041954;28;20536;-45
2022/08/06 07:40:33;;;;;;;5.60;1.90;;;18.20;99.90;;;;;;5042118;28;20462;-50
2022/08/06 07:43:10;;;;;;;4.03;1.30;;;17.80;99.90;;;;;;5037928;28;20449;-51
2022/08/06 07:45:37;;;;;;;4.40;1.37;;;17.60;99.90;;;;;;5027873;28;20444;-51
2022/08/06 07:48:07;;;;;;;3.50;1.30;;;17.40;99.90;;;;;;5029152;28;20822;-50
2022/08/06 07:50:32;;;;;;;2.50;1.20;;;17.40;99.90;;;;;;5030363;28;20861;-51
2022/08/06 07:52:59;;;;;;;1.53;1.10;;;17.50;99.90;;;;;;5031661;28;20568;-50
2022/08/06 07:55:27;;;;;;;4.07;1.20;;;17.70;99.90;;;;;;5032044;28;20537;-50
2022/08/06 07:57:54;;;;;;;1.73;1.07;;;18.00;99.90;;;;;;5029706;28;20521;-51
2022/08/06 08:00:22;;;;;;;2.13;0.90;;;18.30;99.90;;;;;;5030631;28;20449;-50
2022/08/06 08:08:24;;;;;;;1.67;1.00;;;19.00;99.90;;;;;;5022307;28;20476;-50
2022/08/06 08:10:50;;;;;;;2.40;1.30;;;19.00;99.90;;;;;;5026568;28;20449;-50
2022/08/06 08:13:18;;;;;;;2.83;0.93;;;19.50;99.90;;;;;;5032967;28;20449;-50
2022/08/06 08:15:45;;;;;;;2.67;1.00;;;20.10;99.90;;;;;;5009643;28;20446;-50
2022/08/06 08:18:11;;;;;;;4.17;0.87;;;20.70;99.90;;;;;;5023608;28;20838;-49
2022/08/06 08:20:39;;;;;;;1.70;0.90;;;21.10;99.90;;;;;;5032671;28;20434;-49
2022/08/06 08:23:06;;;;;;;2.00;0.90;;;21.30;99.90;;;;;;5033373;28;20197;-50
2022/08/06 08:25:33;;;;;;;1.90;0.90;;;21.40;99.90;;;;;;5028049;28;20463;-49
2022/08/06 08:28:01;;;;;;;0.87;0.67;;;21.60;99.90;;;;;;5036244;28;20511;-49
2022/08/06 08:30:27;;;;;;;1.93;1.00;;;21.90;99.90;;;;;;5036648;28;20441;-50
2022/08/06 08:32:52;;;;;;;1.50;0.90;;;22.10;99.90;;;;;;5030560;28;20507;-50
2022/08/06 08:35:18;;;;;;;2.40;0.90;;;22.10;99.90;;;;;;5033251;28;20194;-49
2022/08/06 08:37:44;;;;;;;2.10;0.80;;;22.40;99.90;;;;;;5035281;28;20198;-50
2022/08/06 08:40:10;;;;;;;5.87;1.10;;;22.30;99.90;;;;;;5032894;28;20533;-49
2022/08/06 08:42:53;;;;;;;1.20;1.10;;;22.40;99.90;;;;;;5030014;28;20645;-50
2022/08/06 08:45:20;;;;;;;1.07;0.90;;;22.70;99.90;;;;;;5028398;28;20524;-50
2022/08/06 08:47:50;;;;;;;2.03;1.00;;;23.00;99.90;;;;;;5029383;28;20469;-49
2022/08/06 08:50:19;;;;;;;2.13;1.20;;;23.50;99.90;;;;;;5020268;28;20444;-50
2022/08/06 08:52:48;;;;;;;2.70;0.93;;;23.80;99.90;;;;;;5041699;28;20504;-51
2022/08/06 08:55:16;;;;;;;2.90;1.03;;;23.80;99.90;;;;;;5029645;28;20507;-45
2022/08/06 08:57:42;;;;;;;1.33;0.90;;;23.80;99.90;;;;;;5031732;28;20432;-45
2022/08/06 09:00:08;;;;;;;5.40;1.00;;;23.60;99.90;;;;;;5012500;28;20825;-45
2022/08/06 09:02:39;;;;;;;2.60;1.00;;;23.50;99.90;;;;;;5029570;28;20428;-45
2022/08/06 09:05:05;;;;;;;3.33;1.00;;;23.80;99.90;;;;;;5030008;28;20445;-45
2022/08/06 09:07:32;;;;;;;3.43;1.00;;;24.00;99.90;;;;;;5028040;28;20465;-45
2022/08/06 09:09:59;;;;;;;1.00;0.70;;;23.80;99.90;;;;;;5029764;28;20990;-45
2022/08/06 09:12:25;;;;;;;3.00;0.80;;;23.90;99.90;;;;;;5036354;28;20187;-45
2022/08/06 09:14:51;;;;;;;2.57;1.10;;;23.90;99.90;;;;;;5031434;28;20449;-45
2022/08/06 09:17:17;;;;;;;1.53;0.90;;;23.80;99.90;;;;;;5031011;28;20437;-45
2022/08/06 09:19:43;;;;;;;2.97;0.87;;;23.60;99.90;;;;;;5029867;28;20206;-45
2022/08/06 09:22:09;;;;;;;2.40;1.00;;;23.30;99.90;;;;;;5029065;28;20191;-45
2022/08/06 09:24:36;;;;;;;1.10;0.83;;;23.30;99.90;;;;;;5010381;28;20482;-45
2022/08/06 09:27:08;;;;;;;3.83;0.90;;;23.50;99.90;;;;;;5032907;28;20480;-46
2022/08/06 09:29:34;;;;;;;1.10;0.80;;;23.70;99.90;;;;;;5032341;28;20511;-45
2022/08/06 09:32:03;;;;;;;1.80;1.00;;;24.20;99.90;;;;;;5037272;28;20444;-46
2022/08/06 09:34:37;;;;;;;5.03;1.30;;;24.10;99.90;;;;;;5033606;28;20433;-45
2022/08/06 09:37:04;;;;;;;1.97;0.80;;;23.30;99.90;;;;;;5034809;28;20448;-46
2022/08/06 09:39:40;;;;;;;2.30;1.00;;;22.80;99.90;;;;;;5032910;28;20552;-46
2022/08/06 09:42:07;;;;;;;2.07;1.30;;;22.40;99.90;;;;;;5032117;28;20445;-45
2022/08/06 09:44:33;;;;;;;2.90;1.00;;;21.90;99.90;;;;;;5031909;28;20440;-45
2022/08/06 09:47:00;;;;;;;2.40;1.13;;;21.90;99.90;;;;;;5011055;28;20840;-45
2022/08/06 09:49:27;;;;;;;3.57;1.10;;;22.20;99.90;;;;;;5015547;28;20442;-46
2022/08/06 09:52:13;;;;;;;1.93;1.10;;;23.00;99.90;;;;;;5030644;28;20453;-45
2022/08/06 09:54:39;;;;;;;2.97;0.97;;;23.80;99.90;;;;;;5036687;28;20484;-46
2022/08/06 09:57:05;;;;;;;5.07;1.63;;;24.30;99.90;;;;;;5033332;28;20495;-45
2022/08/06 09:59:43;;;;;;;16.43;4.10;;;25.00;99.90;;;;;;5033222;28;20422;-46
2022/08/06 10:02:14;;;;;;;7.87;1.63;;;24.70;99.90;;;;;;5033638;28;20605;-45
2022/08/06 10:04:39;;;;;;;3.53;1.30;;;23.70;99.90;;;;;;5032889;28;20764;-46
2022/08/06 10:07:06;;;;;;;23.37;5.93;;;22.50;99.90;;;;;;5033285;28;20473;-46
2022/08/06 10:09:33;;;;;;;4.00;1.60;;;22.40;99.90;;;;;;5033277;28;20468;-46
2022/08/06 10:11:59;;;;;;;4.47;1.80;;;22.70;99.90;;;;;;5029348;28;20454;-46
2022/08/06 10:14:33;;;;;;;3.40;1.10;;;23.00;99.90;;;;;;5032820;28;20441;-46
2022/08/06 10:17:12;;;;;;;2.53;1.00;;;23.60;99.90;;;;;;5032628;28;20452;-46
2022/08/06 10:19:41;;;;;;;4.27;1.40;;;23.90;99.90;;;;;;5033438;28;20480;-48
2022/08/06 10:22:18;;;;;;;2.60;1.00;;;24.40;99.90;;;;;;5034141;28;20507;-49
2022/08/06 10:24:50;;;;;;;3.20;1.10;;;24.50;99.90;;;;;;5029789;28;21394;-49
2022/08/06 10:27:25;;;;;;;2.83;1.00;;;24.40;99.90;;;;;;5039661;28;20457;-49
2022/08/06 10:29:53;;;;;;;3.20;1.67;;;24.40;99.90;;;;;;5034493;28;20445;-48
2022/08/06 10:32:50;;;;;;;2.63;1.30;;;24.70;99.90;;;;;;5035984;28;20448;-50
2022/08/06 10:35:20;;;;;;;1.37;1.23;;;25.10;99.90;;;;;;5028993;28;20441;-48
2022/08/06 10:37:49;;;;;;;2.83;1.40;;;25.40;99.90;;;;;;5030820;28;20446;-50
2022/08/06 10:40:18;;;;;;;3.40;2.30;;;24.80;99.90;;;;;;5036098;28;20955;-51
2022/08/06 10:42:44;;;;;;;3.70;2.37;;;23.70;99.90;;;;;;5032178;28;20433;-49
2022/08/06 10:45:11;;;;;;;2.30;1.87;;;22.60;99.90;;;;;;5034460;28;20441;-49
2022/08/06 10:47:41;;;;;;;5.00;2.00;;;22.30;99.90;;;;;;5026170;28;20461;-49
2022/08/06 10:50:09;;;;;;;5.37;2.80;;;23.10;99.90;;;;;;5028630;28;20445;-49
2022/08/06 10:52:35;;;;;;;2.30;2.00;;;23.80;99.90;;;;;;5029400;28;20449;-45
2022/08/06 10:55:04;;;;;;;4.20;2.80;;;24.80;99.90;;;;;;5031355;28;20464;-46
2022/08/06 10:57:32;;;;;;;6.27;2.90;;;25.40;99.90;;;;;;5031070;28;20480;-50
2022/08/06 11:00:00;;;;;;;3.20;2.60;;;26.20;99.90;;;;;;5016107;28;20441;-50
2022/08/06 11:02:44;;;;;;;5.47;3.20;;;26.90;99.90;;;;;;5023090;28;20856;-50
2022/08/06 11:05:16;;;;;;;3.13;2.83;;;27.20;99.90;;;;;;5021112;28;20453;-49
2022/08/06 11:08:00;;;;;;;3.50;3.07;;;26.90;99.90;;;;;;5028919;28;21292;-50
2022/08/06 11:10:37;;;;;;;2.90;2.60;;;26.00;99.90;;;;;;5031547;28;20429;-50
2022/08/06 11:13:24;;;;;;;3.80;3.00;;;25.60;99.90;;;;;;5031693;28;20437;-51
2022/08/06 11:15:51;;;;;;;10.57;2.60;;;25.30;99.90;;;;;;5031797;28;20414;-51
2022/08/06 11:18:18;;;;;;;5.40;2.60;;;25.30;99.90;;;;;;5038298;28;20938;-52
2022/08/06 11:20:45;;;;;;;10.87;4.23;;;25.10;99.90;;;;;;5031405;28;20422;-51
2022/08/06 11:23:11;;;;;;;5.53;3.63;;;25.80;99.90;;;;;;5031487;28;20425;-51
2022/08/06 11:25:40;;;;;;;4.10;3.20;;;25.90;99.90;;;;;;5031115;28;20444;-52
2022/08/06 11:28:10;;;;;;;4.17;3.23;;;26.30;99.90;;;;;;5029641;28;20210;-52
2022/08/06 11:30:57;;;;;;;4.77;3.00;;;26.70;99.90;;;;;;5033776;28;20448;-52
2022/08/06 11:33:32;;;;;;;3.97;2.90;;;26.10;99.90;;;;;;5015596;28;21075;-53
2022/08/06 11:35:59;;;;;;;4.53;3.13;;;25.90;99.90;;;;;;5029864;28;20441;-51
2022/08/06 11:38:46;;;;;;;3.00;2.70;;;26.20;99.90;;;;;;5030837;28;20957;-52
2022/08/06 11:41:42;;;;;;;3.60;2.67;;;26.70;99.90;;;;;;5021297;28;20454;-52
2022/08/06 11:44:09;;;;;;;6.23;2.70;;;27.50;99.90;;;;;;5039394;28;20460;-53
2022/08/06 11:46:41;;;;;;;6.97;3.43;;;27.60;99.90;;;;;;5029425;28;20474;-52
2022/08/06 11:49:18;;;;;;;7.97;3.60;;;26.90;99.90;;;;;;5030551;28;20442;-54
2022/08/06 11:52:01;;;;;;;3.80;3.40;;;26.10;99.90;;;;;;5029605;28;20445;-55
2022/08/06 11:54:34;;;;;;;3.40;3.10;;;25.80;99.90;;;;;;5029794;28;20490;-45
2022/08/06 11:57:06;;;;;;;6.60;4.00;;;25.60;99.90;;;;;;5032935;28;20441;-46
2022/08/06 11:59:49;;;;;;;3.80;3.40;;;26.40;99.90;;;;;;5031923;28;20521;-46
2022/08/06 12:02:41;;;;;;;5.33;3.03;;;26.30;99.90;;;;;;5021731;28;20973;-45
2022/08/06 12:05:13;;;;;;;3.53;3.10;;;25.80;99.90;;;;;;5020059;28;20564;-45
2022/08/06 12:07:39;;;;;;;5.40;3.57;;;24.90;99.90;;;;;;5029795;28;20501;-45
2022/08/06 12:10:08;;;;;;;4.00;3.60;;;24.80;99.90;;;;;;5029971;28;20446;-45
2022/08/06 12:12:39;;;;;;;3.50;3.20;;;25.30;99.90;;;;;;5032035;28;20442;-45
2022/08/06 12:15:11;;;;;;;7.27;3.67;;;25.70;99.90;;;;;;5030598;28;20421;-46
2022/08/06 12:17:42;;;;;;;4.37;3.77;;;26.10;99.90;;;;;;5030256;28;20494;-46
2022/08/06 12:20:08;;;;;;;4.20;3.30;;;26.60;99.90;;;;;;5031385;28;20523;-45
2022/08/06 12:22:35;;;;;;;5.13;4.00;;;27.30;99.90;;;;;;5033533;28;20452;-45
2022/08/06 12:25:06;;;;;;;4.70;3.70;;;27.20;99.90;;;;;;5030335;28;20437;-45
2022/08/06 12:27:34;;;;;;;6.47;3.83;;;27.10;99.90;;;;;;5031718;28;20469;-45
2022/08/06 12:30:01;;;;;;;3.93;3.47;;;27.40;99.90;;;;;;5012748;28;20984;-45
2022/08/06 12:32:28;;;;;;;3.47;3.17;;;27.50;99.90;;;;;;5029956;28;20449;-45
2022/08/06 12:34:55;;;;;;;3.80;3.03;;;27.60;99.90;;;;;;5028467;28;20484;-45
2022/08/06 12:37:32;;;;;;;3.50;3.20;;;28.00;99.90;;;;;;5016889;28;20441;-46
2022/08/06 12:42:41;;;;;;;4.40;3.63;;;28.60;99.90;;;;;;5030055;28;20475;-46
2022/08/06 12:45:09;;;;;;;4.57;3.93;;;28.60;99.90;;;;;;5011722;28;20455;-53
2022/08/06 12:47:35;;;;;;;4.73;3.53;;;28.60;99.90;;;;;;5030661;28;20210;-53
2022/08/06 12:50:00;;;;;;;5.67;3.77;;;28.40;99.90;;;;;;5030713;28;20530;-55
2022/08/06 12:52:26;;;;;;;3.77;3.47;;;28.10;99.90;;;;;;5030594;28;20182;-54
2022/08/06 12:54:52;;;;;;;4.63;3.87;;;28.00;99.90;;;;;;5028750;28;20191;-51
2022/08/06 12:57:21;;;;;;;5.73;3.47;;;27.50;99.90;;;;;;5049335;28;20202;-55
2022/08/06 12:59:48;;;;;;;6.07;4.43;;;27.20;99.90;;;;;;5052868;28;20201;-54
2022/08/06 13:02:16;;;;;;;6.07;4.30;;;27.20;99.90;;;;;;5054479;28;20419;-53
2022/08/06 13:04:45;;;;;;;4.87;4.30;;;27.50;99.90;;;;;;5018382;28;20488;-53
2022/08/06 13:07:13;;;;;;;4.30;3.90;;;27.80;99.90;;;;;;5034022;28;20829;-54
2022/08/06 13:09:39;;;;;;;5.20;4.20;;;28.10;99.90;;;;;;5033417;28;21092;-53
2022/08/06 13:12:31;;;;;;;5.00;3.50;;;28.00;99.90;;;;;;5033965;28;20449;-53